Terminal Aerodrome Forecast
Issued by NWS

Home | Current Version | Previous Version | Graphics & Text | Print | Product List | Glossary On
Versions: 1 2 3 4 5 6 7 8 9 10 11 12 13 14 15 16 17 18
000
FTUS43 KUNR 231700
TAFGCC
TAF
KGCC 231721Z 2318/2418 33018G28KT P6SM SCT080
     FM240000 30009KT P6SM SCT100
     FM240500 21015KT P6SM FEW250=

USA.gov is the U.S. government's official web portal to all federal, state and local government web resources and services.